sensor_id;sensor_type;location;lat;lon;timestamp;temperature;humidity
74101;DHT22;62462;52.530;21.682;2023-05-15T00:01:20;16.10;50.30
74101;DHT22;62462;52.530;21.682;2023-05-15T00:03:46;16.10;50.30
74101;DHT22;62462;52.530;21.682;2023-05-15T00:06:12;16.10;50.30
74101;DHT22;62462;52.530;21.682;2023-05-15T00:08:38;16.10;50.30
74101;DHT22;62462;52.530;21.682;2023-05-15T00:11:04;16.10;50.60
74101;DHT22;62462;52.530;21.682;2023-05-15T00:13:30;16.10;50.50
74101;DHT22;62462;52.530;21.682;2023-05-15T00:15:56;16.10;50.90
74101;DHT22;62462;52.530;21.682;2023-05-15T00:18:21;16.00;50.60
74101;DHT22;62462;52.530;21.682;2023-05-15T00:20:47;16.00;51.50
74101;DHT22;62462;52.530;21.682;2023-05-15T00:23:13;16.10;50.70
74101;DHT22;62462;52.530;21.682;2023-05-15T00:25:39;16.00;50.60
74101;DHT22;62462;52.530;21.682;2023-05-15T00:28:04;16.00;50.60
74101;DHT22;62462;52.530;21.682;2023-05-15T00:30:30;16.00;50.60
74101;DHT22;62462;52.530;21.682;2023-05-15T00:32:56;16.00;50.60
74101;DHT22;62462;52.530;21.682;2023-05-15T00:35:22;16.00;50.80
74101;DHT22;62462;52.530;21.682;2023-05-15T00:37:49;16.00;50.70
74101;DHT22;62462;52.530;21.682;2023-05-15T00:40:19;16.00;50.90
74101;DHT22;62462;52.530;21.682;2023-05-15T00:42:47;16.00;50.80
74101;DHT22;62462;52.530;21.682;2023-05-15T00:45:13;16.10;50.80
74101;DHT22;62462;52.530;21.682;2023-05-15T00:47:39;16.10;50.50
74101;DHT22;62462;52.530;21.682;2023-05-15T00:50:09;16.10;50.20
74101;DHT22;62462;52.530;21.682;2023-05-15T00:52:36;16.20;50.10
74101;DHT22;62462;52.530;21.682;2023-05-15T00:55:02;16.20;50.00
74101;DHT22;62462;52.530;21.682;2023-05-15T00:57:30;16.30;50.20
74101;DHT22;62462;52.530;21.682;2023-05-15T00:59:56;16.30;50.00
74101;DHT22;62462;52.530;21.682;2023-05-15T01:02:22;16.40;49.70
74101;DHT22;62462;52.530;21.682;2023-05-15T01:04:48;16.40;49.60
74101;DHT22;62462;52.530;21.682;2023-05-15T01:07:14;16.50;49.70
74101;DHT22;62462;52.530;21.682;2023-05-15T01:09:43;16.50;49.70
74101;DHT22;62462;52.530;21.682;2023-05-15T01:12:13;16.50;49.70
74101;DHT22;62462;52.530;21.682;2023-05-15T01:14:39;16.50;49.50
74101;DHT22;62462;52.530;21.682;2023-05-15T01:17:05;16.50;49.70
74101;DHT22;62462;52.530;21.682;2023-05-15T01:19:31;16.50;49.50
74101;DHT22;62462;52.530;21.682;2023-05-15T01:25:00;16.60;49.00
74101;DHT22;62462;52.530;21.682;2023-05-15T01:27:40;16.60;49.00
74101;DHT22;62462;52.530;21.682;2023-05-15T01:32:54;16.60;48.80
74101;DHT22;62462;52.530;21.682;2023-05-15T01:35:37;16.60;48.90
74101;DHT22;62462;52.530;21.682;2023-05-15T01:43:34;16.60;49.10
74101;DHT22;62462;52.530;21.682;2023-05-15T01:46:02;16.60;49.00
74101;DHT22;62462;52.530;21.682;2023-05-15T01:48:30;16.60;49.00
74101;DHT22;62462;52.530;21.682;2023-05-15T01:51:00;16.60;49.10
74101;DHT22;62462;52.530;21.682;2023-05-15T01:53:31;16.60;49.40
74101;DHT22;62462;52.530;21.682;2023-05-15T01:55:58;16.60;49.50
74101;DHT22;62462;52.530;21.682;2023-05-15T01:58:25;16.60;49.40
74101;DHT22;62462;52.530;21.682;2023-05-15T02:00:53;16.60;49.60
74101;DHT22;62462;52.530;21.682;2023-05-15T02:03:19;16.50;49.30
74101;DHT22;62462;52.530;21.682;2023-05-15T02:05:46;16.50;49.70
74101;DHT22;62462;52.530;21.682;2023-05-15T02:08:11;16.50;49.50
74101;DHT22;62462;52.530;21.682;2023-05-15T02:10:38;16.50;49.40
74101;DHT22;62462;52.530;21.682;2023-05-15T02:13:06;16.50;49.20
74101;DHT22;62462;52.530;21.682;2023-05-15T02:15:32;16.50;49.10
74101;DHT22;62462;52.530;21.682;2023-05-15T02:17:58;16.50;49.00
74101;DHT22;62462;52.530;21.682;2023-05-15T02:20:24;16.50;49.00
74101;DHT22;62462;52.530;21.682;2023-05-15T02:22:50;16.50;49.00
74101;DHT22;62462;52.530;21.682;2023-05-15T02:25:15;16.50;48.90
74101;DHT22;62462;52.530;21.682;2023-05-15T02:27:50;16.50;49.20
74101;DHT22;62462;52.530;21.682;2023-05-15T02:35:57;16.50;48.80
74101;DHT22;62462;52.530;21.682;2023-05-15T02:38:28;16.50;48.70
74101;DHT22;62462;52.530;21.682;2023-05-15T02:40:55;16.50;48.80
74101;DHT22;62462;52.530;21.682;2023-05-15T02:43:22;16.50;48.70
74101;DHT22;62462;52.530;21.682;2023-05-15T02:45:47;16.50;48.70
74101;DHT22;62462;52.530;21.682;2023-05-15T02:48:14;16.50;48.60
74101;DHT22;62462;52.530;21.682;2023-05-15T02:50:42;16.50;48.40
74101;DHT22;62462;52.530;21.682;2023-05-15T02:53:08;16.50;48.40
74101;DHT22;62462;52.530;21.682;2023-05-15T02:55:35;16.60;48.80
74101;DHT22;62462;52.530;21.682;2023-05-15T02:58:01;16.60;48.40
74101;DHT22;62462;52.530;21.682;2023-05-15T03:00:28;16.60;48.30
74101;DHT22;62462;52.530;21.682;2023-05-15T03:02:53;16.60;48.40
74101;DHT22;62462;52.530;21.682;2023-05-15T03:05:19;16.60;48.40
74101;DHT22;62462;52.530;21.682;2023-05-15T03:07:45;16.60;48.30
74101;DHT22;62462;52.530;21.682;2023-05-15T03:10:11;16.70;48.40
74101;DHT22;62462;52.530;21.682;2023-05-15T03:12:37;16.70;48.40
74101;DHT22;62462;52.530;21.682;2023-05-15T03:15:04;16.60;48.50
74101;DHT22;62462;52.530;21.682;2023-05-15T03:17:30;16.60;48.80
74101;DHT22;62462;52.530;21.682;2023-05-15T03:19:56;16.60;48.90
74101;DHT22;62462;52.530;21.682;2023-05-15T03:22:22;16.60;49.00
74101;DHT22;62462;52.530;21.682;2023-05-15T03:24:48;16.50;49.30
74101;DHT22;62462;52.530;21.682;2023-05-15T03:27:14;16.60;49.10
74101;DHT22;62462;52.530;21.682;2023-05-15T03:29:40;16.50;49.10
74101;DHT22;62462;52.530;21.682;2023-05-15T03:32:06;16.60;49.00
74101;DHT22;62462;52.530;21.682;2023-05-15T03:34:32;16.60;49.00
74101;DHT22;62462;52.530;21.682;2023-05-15T03:36:57;16.50;49.20
74101;DHT22;62462;52.530;21.682;2023-05-15T03:39:23;16.50;49.30
74101;DHT22;62462;52.530;21.682;2023-05-15T03:41:49;16.50;49.50
74101;DHT22;62462;52.530;21.682;2023-05-15T03:44:15;16.50;49.50
74101;DHT22;62462;52.530;21.682;2023-05-15T03:46:40;16.50;49.50
74101;DHT22;62462;52.530;21.682;2023-05-15T03:49:06;16.50;49.30
74101;DHT22;62462;52.530;21.682;2023-05-15T03:51:32;16.50;49.20
74101;DHT22;62462;52.530;21.682;2023-05-15T03:53:57;16.50;49.30
74101;DHT22;62462;52.530;21.682;2023-05-15T03:56:23;16.60;49.50
74101;DHT22;62462;52.530;21.682;2023-05-15T03:58:49;16.60;49.30
74101;DHT22;62462;52.530;21.682;2023-05-15T04:01:15;16.70;49.30
74101;DHT22;62462;52.530;21.682;2023-05-15T04:03:41;16.70;49.20
74101;DHT22;62462;52.530;21.682;2023-05-15T04:06:06;16.70;49.10
74101;DHT22;62462;52.530;21.682;2023-05-15T04:08:32;16.70;49.20
74101;DHT22;62462;52.530;21.682;2023-05-15T04:10:58;16.70;49.10
74101;DHT22;62462;52.530;21.682;2023-05-15T04:13:23;16.70;49.20
74101;DHT22;62462;52.530;21.682;2023-05-15T04:15:49;16.70;49.30
74101;DHT22;62462;52.530;21.682;2023-05-15T04:18:15;16.70;49.20
74101;DHT22;62462;52.530;21.682;2023-05-15T04:20:40;16.70;49.20
74101;DHT22;62462;52.530;21.682;2023-05-15T04:23:06;16.70;49.40
74101;DHT22;62462;52.530;21.682;2023-05-15T04:25:32;16.80;49.30
74101;DHT22;62462;52.530;21.682;2023-05-15T04:27:57;16.80;49.20
74101;DHT22;62462;52.530;21.682;2023-05-15T04:30:23;16.80;48.80
74101;DHT22;62462;52.530;21.682;2023-05-15T04:32:49;16.90;48.70
74101;DHT22;62462;52.530;21.682;2023-05-15T04:35:16;17.00;48.30
74101;DHT22;62462;52.530;21.682;2023-05-15T04:37:42;17.10;48.10
74101;DHT22;62462;52.530;21.682;2023-05-15T04:40:10;17.10;47.80
74101;DHT22;62462;52.530;21.682;2023-05-15T04:42:36;17.20;47.70
74101;DHT22;62462;52.530;21.682;2023-05-15T04:45:02;17.30;47.60
74101;DHT22;62462;52.530;21.682;2023-05-15T04:47:29;17.30;47.30
74101;DHT22;62462;52.530;21.682;2023-05-15T04:49:55;17.40;47.40
74101;DHT22;62462;52.530;21.682;2023-05-15T04:52:21;17.40;47.20
74101;DHT22;62462;52.530;21.682;2023-05-15T04:54:47;17.50;47.20
74101;DHT22;62462;52.530;21.682;2023-05-15T04:57:15;17.50;46.60
74101;DHT22;62462;52.530;21.682;2023-05-15T04:59:41;17.50;46.40
74101;DHT22;62462;52.530;21.682;2023-05-15T05:02:09;17.60;46.30
74101;DHT22;62462;52.530;21.682;2023-05-15T05:04:34;17.60;46.10
74101;DHT22;62462;52.530;21.682;2023-05-15T05:07:00;17.70;45.90
74101;DHT22;62462;52.530;21.682;2023-05-15T05:09:28;17.70;45.90
74101;DHT22;62462;52.530;21.682;2023-05-15T05:11:54;17.70;46.00
74101;DHT22;62462;52.530;21.682;2023-05-15T05:14:20;17.70;46.40
74101;DHT22;62462;52.530;21.682;2023-05-15T05:16:46;17.60;45.60
74101;DHT22;62462;52.530;21.682;2023-05-15T05:19:11;17.60;45.10
74101;DHT22;62462;52.530;21.682;2023-05-15T05:21:37;17.70;45.30
74101;DHT22;62462;52.530;21.682;2023-05-15T05:24:03;17.70;45.00
74101;DHT22;62462;52.530;21.682;2023-05-15T05:26:28;17.80;45.30
74101;DHT22;62462;52.530;21.682;2023-05-15T05:28:54;17.80;45.30
74101;DHT22;62462;52.530;21.682;2023-05-15T05:31:20;17.80;44.70
74101;DHT22;62462;52.530;21.682;2023-05-15T05:33:46;17.90;45.10
74101;DHT22;62462;52.530;21.682;2023-05-15T05:36:14;17.90;44.70
74101;DHT22;62462;52.530;21.682;2023-05-15T05:38:40;18.00;44.70
74101;DHT22;62462;52.530;21.682;2023-05-15T05:41:06;18.00;44.40
74101;DHT22;62462;52.530;21.682;2023-05-15T05:43:31;18.00;44.80
74101;DHT22;62462;52.530;21.682;2023-05-15T05:45:57;18.00;44.90
74101;DHT22;62462;52.530;21.682;2023-05-15T05:48:23;18.00;44.70
74101;DHT22;62462;52.530;21.682;2023-05-15T05:50:48;18.10;44.80
74101;DHT22;62462;52.530;21.682;2023-05-15T05:53:15;18.10;44.70
74101;DHT22;62462;52.530;21.682;2023-05-15T05:55:41;18.20;44.80
74101;DHT22;62462;52.530;21.682;2023-05-15T05:58:07;18.20;44.60
74101;DHT22;62462;52.530;21.682;2023-05-15T06:00:33;18.20;45.00
74101;DHT22;62462;52.530;21.682;2023-05-15T06:02:59;18.20;44.90
74101;DHT22;62462;52.530;21.682;2023-05-15T06:05:25;18.20;44.60
74101;DHT22;62462;52.530;21.682;2023-05-15T06:07:52;18.20;44.40
74101;DHT22;62462;52.530;21.682;2023-05-15T06:10:18;18.30;44.60
74101;DHT22;62462;52.530;21.682;2023-05-15T06:12:45;18.30;44.50
74101;DHT22;62462;52.530;21.682;2023-05-15T06:15:11;18.30;44.30
74101;DHT22;62462;52.530;21.682;2023-05-15T06:17:37;18.30;44.00
74101;DHT22;62462;52.530;21.682;2023-05-15T06:20:03;18.30;43.90
74101;DHT22;62462;52.530;21.682;2023-05-15T06:22:33;18.30;44.30
74101;DHT22;62462;52.530;21.682;2023-05-15T06:25:00;18.30;44.30
74101;DHT22;62462;52.530;21.682;2023-05-15T06:27:27;18.40;44.20
74101;DHT22;62462;52.530;21.682;2023-05-15T06:29:53;18.40;44.20
74101;DHT22;62462;52.530;21.682;2023-05-15T06:32:20;18.40;43.80
74101;DHT22;62462;52.530;21.682;2023-05-15T06:34:45;18.40;44.20
74101;DHT22;62462;52.530;21.682;2023-05-15T06:37:11;18.50;43.80
74101;DHT22;62462;52.530;21.682;2023-05-15T06:39:37;18.50;44.00
74101;DHT22;62462;52.530;21.682;2023-05-15T06:42:03;18.50;43.80
74101;DHT22;62462;52.530;21.682;2023-05-15T06:44:31;18.50;44.10
74101;DHT22;62462;52.530;21.682;2023-05-15T06:46:58;18.50;44.00
74101;DHT22;62462;52.530;21.682;2023-05-15T06:49:24;18.50;44.10
74101;DHT22;62462;52.530;21.682;2023-05-15T06:51:50;18.50;44.40
74101;DHT22;62462;52.530;21.682;2023-05-15T06:54:16;18.60;44.10
74101;DHT22;62462;52.530;21.682;2023-05-15T06:56:42;18.50;44.20
74101;DHT22;62462;52.530;21.682;2023-05-15T06:59:08;18.50;44.00
74101;DHT22;62462;52.530;21.682;2023-05-15T07:01:34;18.40;44.40
74101;DHT22;62462;52.530;21.682;2023-05-15T07:04:00;18.40;44.40
74101;DHT22;62462;52.530;21.682;2023-05-15T07:06:26;18.40;44.20
74101;DHT22;62462;52.530;21.682;2023-05-15T07:08:52;18.40;44.40
74101;DHT22;62462;52.530;21.682;2023-05-15T07:11:18;18.40;44.40
74101;DHT22;62462;52.530;21.682;2023-05-15T07:13:44;18.40;43.90
74101;DHT22;62462;52.530;21.682;2023-05-15T07:16:09;18.40;44.70
74101;DHT22;62462;52.530;21.682;2023-05-15T07:18:35;18.40;44.70
74101;DHT22;62462;52.530;21.682;2023-05-15T07:21:01;18.40;44.80
74101;DHT22;62462;52.530;21.682;2023-05-15T07:23:27;18.30;45.00
74101;DHT22;62462;52.530;21.682;2023-05-15T07:25:54;18.40;45.00
74101;DHT22;62462;52.530;21.682;2023-05-15T07:28:20;18.40;45.20
74101;DHT22;62462;52.530;21.682;2023-05-15T07:30:46;18.40;45.30
74101;DHT22;62462;52.530;21.682;2023-05-15T07:33:12;18.40;45.00
74101;DHT22;62462;52.530;21.682;2023-05-15T07:35:37;18.40;44.90
74101;DHT22;62462;52.530;21.682;2023-05-15T07:38:03;18.40;45.00
74101;DHT22;62462;52.530;21.682;2023-05-15T07:40:29;18.40;45.30
74101;DHT22;62462;52.530;21.682;2023-05-15T07:42:55;18.40;45.40
74101;DHT22;62462;52.530;21.682;2023-05-15T07:45:21;18.30;45.40
74101;DHT22;62462;52.530;21.682;2023-05-15T07:47:48;18.30;45.60
74101;DHT22;62462;52.530;21.682;2023-05-15T07:50:14;18.30;46.20
74101;DHT22;62462;52.530;21.682;2023-05-15T07:52:40;18.30;47.00
74101;DHT22;62462;52.530;21.682;2023-05-15T07:55:10;18.20;47.90
74101;DHT22;62462;52.530;21.682;2023-05-15T07:57:36;18.20;49.30
74101;DHT22;62462;52.530;21.682;2023-05-15T08:00:02;18.00;50.20
74101;DHT22;62462;52.530;21.682;2023-05-15T08:02:35;18.00;50.30
74101;DHT22;62462;52.530;21.682;2023-05-15T08:05:01;18.00;51.30
74101;DHT22;62462;52.530;21.682;2023-05-15T08:07:29;17.90;51.50
74101;DHT22;62462;52.530;21.682;2023-05-15T08:09:55;17.90;52.30
74101;DHT22;62462;52.530;21.682;2023-05-15T08:12:21;17.90;52.20
74101;DHT22;62462;52.530;21.682;2023-05-15T08:14:51;17.90;52.70
74101;DHT22;62462;52.530;21.682;2023-05-15T08:17:17;17.90;53.10
74101;DHT22;62462;52.530;21.682;2023-05-15T08:19:44;17.90;53.20
74101;DHT22;62462;52.530;21.682;2023-05-15T08:22:09;18.00;53.20
74101;DHT22;62462;52.530;21.682;2023-05-15T08:24:36;17.90;53.00
74101;DHT22;62462;52.530;21.682;2023-05-15T08:27:04;17.90;53.50
74101;DHT22;62462;52.530;21.682;2023-05-15T08:29:31;17.80;53.30
74101;DHT22;62462;52.530;21.682;2023-05-15T08:31:57;17.80;53.20
74101;DHT22;62462;52.530;21.682;2023-05-15T08:34:23;17.90;53.40
74101;DHT22;62462;52.530;21.682;2023-05-15T08:36:49;17.90;54.10
74101;DHT22;62462;52.530;21.682;2023-05-15T08:39:15;18.00;54.10
74101;DHT22;62462;52.530;21.682;2023-05-15T08:41:55;18.00;53.90
74101;DHT22;62462;52.530;21.682;2023-05-15T08:44:22;18.00;53.70
74101;DHT22;62462;52.530;21.682;2023-05-15T08:46:48;18.00;52.60
74101;DHT22;62462;52.530;21.682;2023-05-15T08:52:12;18.00;53.40
74101;DHT22;62462;52.530;21.682;2023-05-15T08:54:39;18.00;53.60
74101;DHT22;62462;52.530;21.682;2023-05-15T08:57:05;18.00;54.20
74101;DHT22;62462;52.530;21.682;2023-05-15T08:59:32;18.00;53.90
74101;DHT22;62462;52.530;21.682;2023-05-15T09:01:59;18.00;54.20
74101;DHT22;62462;52.530;21.682;2023-05-15T09:04:25;18.00;54.30
74101;DHT22;62462;52.530;21.682;2023-05-15T09:06:51;18.00;54.20
74101;DHT22;62462;52.530;21.682;2023-05-15T09:09:17;18.00;53.80
74101;DHT22;62462;52.530;21.682;2023-05-15T09:11:45;17.90;54.20
74101;DHT22;62462;52.530;21.682;2023-05-15T09:14:12;17.90;54.30
74101;DHT22;62462;52.530;21.682;2023-05-15T09:16:39;17.80;54.40
74101;DHT22;62462;52.530;21.682;2023-05-15T09:19:11;17.80;54.30
74101;DHT22;62462;52.530;21.682;2023-05-15T09:21:36;17.70;55.20
74101;DHT22;62462;52.530;21.682;2023-05-15T09:24:19;17.80;54.50
74101;DHT22;62462;52.530;21.682;2023-05-15T09:27:03;17.80;54.70
74101;DHT22;62462;52.530;21.682;2023-05-15T09:29:30;17.80;55.00
74101;DHT22;62462;52.530;21.682;2023-05-15T09:32:08;17.70;55.00
74101;DHT22;62462;52.530;21.682;2023-05-15T09:34:37;17.60;55.70
74101;DHT22;62462;52.530;21.682;2023-05-15T09:37:05;17.60;55.60
74101;DHT22;62462;52.530;21.682;2023-05-15T09:39:41;17.50;56.10
74101;DHT22;62462;52.530;21.682;2023-05-15T09:42:09;17.60;56.10
74101;DHT22;62462;52.530;21.682;2023-05-15T09:44:35;17.50;56.70
74101;DHT22;62462;52.530;21.682;2023-05-15T09:47:05;17.50;57.00
74101;DHT22;62462;52.530;21.682;2023-05-15T09:49:31;17.50;57.40
74101;DHT22;62462;52.530;21.682;2023-05-15T09:51:58;17.50;57.70
74101;DHT22;62462;52.530;21.682;2023-05-15T09:54:25;17.40;57.70
74101;DHT22;62462;52.530;21.682;2023-05-15T09:57:07;17.40;58.40
74101;DHT22;62462;52.530;21.682;2023-05-15T09:59:32;17.30;58.60
74101;DHT22;62462;52.530;21.682;2023-05-15T10:01:58;17.40;58.80
74101;DHT22;62462;52.530;21.682;2023-05-15T10:04:24;17.30;60.00
74101;DHT22;62462;52.530;21.682;2023-05-15T10:06:50;17.20;60.30
74101;DHT22;62462;52.530;21.682;2023-05-15T10:09:17;17.30;60.90
74101;DHT22;62462;52.530;21.682;2023-05-15T10:11:51;17.30;62.40
74101;DHT22;62462;52.530;21.682;2023-05-15T10:14:19;17.20;61.50
74101;DHT22;62462;52.530;21.682;2023-05-15T10:16:46;17.10;61.70
74101;DHT22;62462;52.530;21.682;2023-05-15T10:19:12;17.00;62.10
74101;DHT22;62462;52.530;21.682;2023-05-15T10:21:40;17.00;62.20
74101;DHT22;62462;52.530;21.682;2023-05-15T10:24:07;16.90;63.00
74101;DHT22;62462;52.530;21.682;2023-05-15T10:26:41;16.90;63.30
74101;DHT22;62462;52.530;21.682;2023-05-15T10:29:12;16.90;63.80
74101;DHT22;62462;52.530;21.682;2023-05-15T10:31:39;16.90;63.80
74101;DHT22;62462;52.530;21.682;2023-05-15T10:34:06;16.90;64.10
74101;DHT22;62462;52.530;21.682;2023-05-15T10:36:33;16.90;64.10
74101;DHT22;62462;52.530;21.682;2023-05-15T10:39:01;16.90;64.70
74101;DHT22;62462;52.530;21.682;2023-05-15T10:41:32;16.90;64.70
74101;DHT22;62462;52.530;21.682;2023-05-15T10:44:00;17.00;65.40
74101;DHT22;62462;52.530;21.682;2023-05-15T10:46:28;17.00;65.30
74101;DHT22;62462;52.530;21.682;2023-05-15T10:48:55;17.00;65.40
74101;DHT22;62462;52.530;21.682;2023-05-15T10:51:26;17.00;65.40
74101;DHT22;62462;52.530;21.682;2023-05-15T10:53:53;17.00;65.50
74101;DHT22;62462;52.530;21.682;2023-05-15T10:56:20;17.00;66.30
74101;DHT22;62462;52.530;21.682;2023-05-15T10:58:47;17.00;66.60
74101;DHT22;62462;52.530;21.682;2023-05-15T11:01:26;16.90;66.60
74101;DHT22;62462;52.530;21.682;2023-05-15T11:04:04;16.90;66.60
74101;DHT22;62462;52.530;21.682;2023-05-15T11:06:31;16.90;66.50
74101;DHT22;62462;52.530;21.682;2023-05-15T11:14:22;16.90;66.30
74101;DHT22;62462;52.530;21.682;2023-05-15T11:22:27;16.80;67.00
74101;DHT22;62462;52.530;21.682;2023-05-15T11:25:03;16.80;66.90
74101;DHT22;62462;52.530;21.682;2023-05-15T11:27:52;16.80;67.20
74101;DHT22;62462;52.530;21.682;2023-05-15T11:30:20;16.80;67.10
74101;DHT22;62462;52.530;21.682;2023-05-15T11:32:57;16.80;67.10
74101;DHT22;62462;52.530;21.682;2023-05-15T11:37:57;16.70;67.00
74101;DHT22;62462;52.530;21.682;2023-05-15T11:40:31;16.70;67.30
74101;DHT22;62462;52.530;21.682;2023-05-15T11:42:59;16.60;67.40
74101;DHT22;62462;52.530;21.682;2023-05-15T11:45:25;16.60;67.80
74101;DHT22;62462;52.530;21.682;2023-05-15T11:47:52;16.60;67.90
74101;DHT22;62462;52.530;21.682;2023-05-15T11:50:19;16.60;68.40
74101;DHT22;62462;52.530;21.682;2023-05-15T11:52:46;16.60;67.90
74101;DHT22;62462;52.530;21.682;2023-05-15T11:55:14;16.60;69.00
74101;DHT22;62462;52.530;21.682;2023-05-15T11:57:40;16.60;69.00
74101;DHT22;62462;52.530;21.682;2023-05-15T12:00:07;16.70;68.40
74101;DHT22;62462;52.530;21.682;2023-05-15T12:02:35;16.80;68.50
74101;DHT22;62462;52.530;21.682;2023-05-15T12:05:01;16.80;69.40
74101;DHT22;62462;52.530;21.682;2023-05-15T12:07:27;16.80;70.20
74101;DHT22;62462;52.530;21.682;2023-05-15T12:09:53;16.70;70.30
74101;DHT22;62462;52.530;21.682;2023-05-15T12:12:19;16.80;69.90
74101;DHT22;62462;52.530;21.682;2023-05-15T12:14:45;16.80;70.30
74101;DHT22;62462;52.530;21.682;2023-05-15T12:17:11;16.70;70.40
74101;DHT22;62462;52.530;21.682;2023-05-15T12:19:37;16.60;71.10
74101;DHT22;62462;52.530;21.682;2023-05-15T12:22:04;16.60;70.80
74101;DHT22;62462;52.530;21.682;2023-05-15T12:24:31;16.50;71.50
74101;DHT22;62462;52.530;21.682;2023-05-15T12:26:57;16.40;72.10
74101;DHT22;62462;52.530;21.682;2023-05-15T12:29:23;16.40;71.90
74101;DHT22;62462;52.530;21.682;2023-05-15T12:31:50;16.30;72.10
74101;DHT22;62462;52.530;21.682;2023-05-15T12:34:18;16.30;72.00
74101;DHT22;62462;52.530;21.682;2023-05-15T12:36:44;16.20;72.20
74101;DHT22;62462;52.530;21.682;2023-05-15T12:39:10;16.20;72.60
74101;DHT22;62462;52.530;21.682;2023-05-15T12:41:36;16.20;72.50
74101;DHT22;62462;52.530;21.682;2023-05-15T12:44:04;16.10;72.40
74101;DHT22;62462;52.530;21.682;2023-05-15T12:46:31;16.00;72.70
74101;DHT22;62462;52.530;21.682;2023-05-15T12:49:00;16.00;73.20
74101;DHT22;62462;52.530;21.682;2023-05-15T12:51:26;15.90;73.70
74101;DHT22;62462;52.530;21.682;2023-05-15T12:53:54;15.90;73.90
74101;DHT22;62462;52.530;21.682;2023-05-15T12:56:22;15.80;73.90
74101;DHT22;62462;52.530;21.682;2023-05-15T12:58:49;15.80;74.50
74101;DHT22;62462;52.530;21.682;2023-05-15T13:01:15;15.80;74.50
74101;DHT22;62462;52.530;21.682;2023-05-15T13:03:42;15.90;74.50
74101;DHT22;62462;52.530;21.682;2023-05-15T13:06:11;15.90;74.80
74101;DHT22;62462;52.530;21.682;2023-05-15T13:08:40;15.80;74.60
74101;DHT22;62462;52.530;21.682;2023-05-15T13:11:10;15.80;75.10
74101;DHT22;62462;52.530;21.682;2023-05-15T13:13:48;15.80;75.10
74101;DHT22;62462;52.530;21.682;2023-05-15T13:16:27;15.80;75.40
74101;DHT22;62462;52.530;21.682;2023-05-15T13:18:55;15.80;75.30
74101;DHT22;62462;52.530;21.682;2023-05-15T13:21:23;15.80;75.30
74101;DHT22;62462;52.530;21.682;2023-05-15T13:23:50;15.80;75.30
74101;DHT22;62462;52.530;21.682;2023-05-15T13:26:16;15.80;75.40
74101;DHT22;62462;52.530;21.682;2023-05-15T13:28:41;15.80;75.30
74101;DHT22;62462;52.530;21.682;2023-05-15T13:31:07;15.80;75.40
74101;DHT22;62462;52.530;21.682;2023-05-15T13:33:33;15.70;76.00
74101;DHT22;62462;52.530;21.682;2023-05-15T13:36:00;15.70;76.40
74101;DHT22;62462;52.530;21.682;2023-05-15T13:38:26;15.70;76.80
74101;DHT22;62462;52.530;21.682;2023-05-15T13:40:52;15.70;76.90
74101;DHT22;62462;52.530;21.682;2023-05-15T13:43:17;15.70;77.10
74101;DHT22;62462;52.530;21.682;2023-05-15T13:45:43;15.70;77.00
74101;DHT22;62462;52.530;21.682;2023-05-15T13:48:09;15.70;77.30
74101;DHT22;62462;52.530;21.682;2023-05-15T13:50:35;15.70;77.50
74101;DHT22;62462;52.530;21.682;2023-05-15T13:53:00;15.70;77.70
74101;DHT22;62462;52.530;21.682;2023-05-15T13:55:26;15.70;77.90
74101;DHT22;62462;52.530;21.682;2023-05-15T13:57:52;15.70;77.80
74101;DHT22;62462;52.530;21.682;2023-05-15T14:00:18;15.60;78.00
74101;DHT22;62462;52.530;21.682;2023-05-15T14:02:44;15.60;78.20
74101;DHT22;62462;52.530;21.682;2023-05-15T14:05:12;15.60;78.00
74101;DHT22;62462;52.530;21.682;2023-05-15T14:07:38;15.70;77.80
74101;DHT22;62462;52.530;21.682;2023-05-15T14:10:05;15.70;78.00
74101;DHT22;62462;52.530;21.682;2023-05-15T14:12:31;15.70;77.70
74101;DHT22;62462;52.530;21.682;2023-05-15T14:14:57;15.70;77.30
74101;DHT22;62462;52.530;21.682;2023-05-15T14:17:23;15.70;77.90
74101;DHT22;62462;52.530;21.682;2023-05-15T14:19:49;15.70;77.30
74101;DHT22;62462;52.530;21.682;2023-05-15T14:22:16;15.80;77.10
74101;DHT22;62462;52.530;21.682;2023-05-15T14:24:42;15.80;76.90
74101;DHT22;62462;52.530;21.682;2023-05-15T14:27:26;15.80;76.80
74101;DHT22;62462;52.530;21.682;2023-05-15T14:29:51;15.80;77.30
74101;DHT22;62462;52.530;21.682;2023-05-15T14:32:17;15.80;77.60
74101;DHT22;62462;52.530;21.682;2023-05-15T14:34:43;15.80;77.40
74101;DHT22;62462;52.530;21.682;2023-05-15T14:37:09;15.80;78.00
74101;DHT22;62462;52.530;21.682;2023-05-15T14:39:35;15.70;77.70
74101;DHT22;62462;52.530;21.682;2023-05-15T14:42:01;15.70;78.20
74101;DHT22;62462;52.530;21.682;2023-05-15T14:44:27;15.70;78.30
74101;DHT22;62462;52.530;21.682;2023-05-15T14:47:13;15.70;78.60
74101;DHT22;62462;52.530;21.682;2023-05-15T14:49:39;15.60;79.00
74101;DHT22;62462;52.530;21.682;2023-05-15T14:52:07;15.60;79.00
74101;DHT22;62462;52.530;21.682;2023-05-15T14:54:34;15.60;79.20
74101;DHT22;62462;52.530;21.682;2023-05-15T14:57:00;15.60;79.30
74101;DHT22;62462;52.530;21.682;2023-05-15T14:59:27;15.60;79.20
74101;DHT22;62462;52.530;21.682;2023-05-15T15:01:53;15.60;79.50
